sensor_id;sensor_type;location;lat;lon;timestamp;P1;P2;P0;N1;N25;N10
84107;NextPM;74203;50.730;1.626;2023-11-21T00:01:59;10.70;7.90;7.10;106.50;106.50;107.00
84107;NextPM;74203;50.730;1.626;2023-11-21T00:04:06;10.75;7.90;7.15;106.50;107.50;107.50
84107;NextPM;74203;50.730;1.626;2023-11-21T00:06:14;11.00;8.10;7.35;108.50;109.00;109.00
84107;NextPM;74203;50.730;1.626;2023-11-21T00:08:21;10.50;7.75;7.00;104.00;104.00;104.00
84107;NextPM;74203;50.730;1.626;2023-11-21T00:10:29;9.45;7.00;6.30;93.50;94.00;94.00
84107;NextPM;74203;50.730;1.626;2023-11-21T00:12:36;9.75;7.20;6.50;96.00;96.00;96.00
84107;NextPM;74203;50.730;1.626;2023-11-21T00:14:43;10.50;7.70;7.00;103.00;103.50;103.50
84107;NextPM;74203;50.730;1.626;2023-11-21T00:16:50;10.85;8.05;7.25;107.00;107.50;107.50
84107;NextPM;74203;50.730;1.626;2023-11-21T00:18:58;10.05;7.45;6.70;98.00;98.00;98.00
84107;NextPM;74203;50.730;1.626;2023-11-21T00:21:06;10.25;7.55;6.80;102.50;103.50;103.50
84107;NextPM;74203;50.730;1.626;2023-11-21T00:23:13;10.15;7.45;6.75;100.00;100.50;101.00
84107;NextPM;74203;50.730;1.626;2023-11-21T00:25:20;11.15;8.20;7.40;108.50;109.00;109.00
84107;NextPM;74203;50.730;1.626;2023-11-21T00:27:28;10.35;7.60;6.85;101.00;101.50;101.50
84107;NextPM;74203;50.730;1.626;2023-11-21T00:29:35;9.60;7.05;6.40;94.50;95.00;95.50
84107;NextPM;74203;50.730;1.626;2023-11-21T00:31:43;9.35;6.90;6.20;93.50;94.00;94.00
84107;NextPM;74203;50.730;1.626;2023-11-21T00:33:50;7.45;5.50;4.95;73.50;74.00;74.00
84107;NextPM;74203;50.730;1.626;2023-11-21T00:35:57;7.80;5.75;5.20;75.50;75.50;75.50
84107;NextPM;74203;50.730;1.626;2023-11-21T00:38:04;7.50;5.55;5.00;75.00;76.00;76.00
84107;NextPM;74203;50.730;1.626;2023-11-21T00:40:12;8.25;6.10;5.50;79.00;79.50;80.00
84107;NextPM;74203;50.730;1.626;2023-11-21T00:42:20;7.95;5.85;5.30;78.00;78.50;78.50
84107;NextPM;74203;50.730;1.626;2023-11-21T00:44:28;8.90;6.55;5.90;87.00;87.00;87.50
84107;NextPM;74203;50.730;1.626;2023-11-21T00:46:35;8.40;6.20;5.55;81.50;82.00;82.50
84107;NextPM;74203;50.730;1.626;2023-11-21T00:48:43;8.90;6.60;5.90;88.00;88.00;88.50
84107;NextPM;74203;50.730;1.626;2023-11-21T00:50:50;9.60;7.10;6.40;92.00;92.00;92.50
84107;NextPM;74203;50.730;1.626;2023-11-21T00:52:58;9.70;7.15;6.45;94.00;94.50;94.50
84107;NextPM;74203;50.730;1.626;2023-11-21T00:55:06;10.05;7.45;6.70;102.00;102.50;102.50
84107;NextPM;74203;50.730;1.626;2023-11-21T00:57:15;11.65;8.65;7.80;113.50;113.50;113.50
84107;NextPM;74203;50.730;1.626;2023-11-21T00:59:22;10.95;8.10;7.30;108.00;109.00;109.00
84107;NextPM;74203;50.730;1.626;2023-11-21T01:01:30;10.75;7.95;7.15;103.50;104.50;104.50
84107;NextPM;74203;50.730;1.626;2023-11-21T01:03:37;11.65;8.65;7.75;113.50;114.50;114.50
84107;NextPM;74203;50.730;1.626;2023-11-21T01:05:44;11.80;8.70;7.85;109.50;110.00;110.50
84107;NextPM;74203;50.730;1.626;2023-11-21T01:07:52;11.70;8.65;7.80;113.00;113.50;113.50
84107;NextPM;74203;50.730;1.626;2023-11-21T01:09:59;10.05;7.40;6.65;99.00;99.00;99.50
84107;NextPM;74203;50.730;1.626;2023-11-21T01:12:07;9.10;6.70;6.10;89.50;89.50;89.50
84107;NextPM;74203;50.730;1.626;2023-11-21T01:14:15;8.60;6.35;5.70;83.00;83.00;83.50
84107;NextPM;74203;50.730;1.626;2023-11-21T01:16:22;8.20;6.05;5.45;79.00;80.00;80.00
84107;NextPM;74203;50.730;1.626;2023-11-21T01:18:29;8.50;6.25;5.65;80.50;81.00;81.00
84107;NextPM;74203;50.730;1.626;2023-11-21T01:20:37;8.90;6.60;5.95;85.50;85.50;86.00
84107;NextPM;74203;50.730;1.626;2023-11-21T01:22:44;9.20;6.85;6.15;90.50;90.50;90.50
84107;NextPM;74203;50.730;1.626;2023-11-21T01:24:52;9.10;6.70;6.05;89.00;89.50;89.50
84107;NextPM;74203;50.730;1.626;2023-11-21T01:26:59;10.45;7.75;6.95;102.00;102.50;102.50
84107;NextPM;74203;50.730;1.626;2023-11-21T01:29:07;9.60;7.10;6.35;93.00;93.50;93.50
84107;NextPM;74203;50.730;1.626;2023-11-21T01:31:14;10.15;7.55;6.75;101.00;101.50;101.50
84107;NextPM;74203;50.730;1.626;2023-11-21T01:33:21;10.80;8.00;7.20;106.00;106.50;107.00
84107;NextPM;74203;50.730;1.626;2023-11-21T01:35:29;9.90;7.30;6.55;96.50;96.50;97.00
84107;NextPM;74203;50.730;1.626;2023-11-21T01:37:37;11.05;8.15;7.35;109.00;109.00;109.00
84107;NextPM;74203;50.730;1.626;2023-11-21T01:39:44;11.15;8.25;7.45;108.00;108.50;108.50
84107;NextPM;74203;50.730;1.626;2023-11-21T01:41:52;10.35;7.65;6.90;101.50;102.00;102.00
84107;NextPM;74203;50.730;1.626;2023-11-21T01:43:59;10.05;7.40;6.70;95.50;95.50;95.50
84107;NextPM;74203;50.730;1.626;2023-11-21T01:46:07;10.75;7.95;7.15;102.00;102.50;102.50
84107;NextPM;74203;50.730;1.626;2023-11-21T01:48:15;10.15;7.50;6.75;99.50;99.50;100.00
84107;NextPM;74203;50.730;1.626;2023-11-21T01:50:23;10.85;8.00;7.20;108.00;108.50;109.00
84107;NextPM;74203;50.730;1.626;2023-11-21T01:52:32;10.50;7.75;6.95;103.00;103.50;104.00
84107;NextPM;74203;50.730;1.626;2023-11-21T01:54:41;11.05;8.20;7.35;108.00;108.50;109.00
84107;NextPM;74203;50.730;1.626;2023-11-21T01:56:49;12.10;8.95;8.05;118.50;119.50;119.50
84107;NextPM;74203;50.730;1.626;2023-11-21T01:58:56;12.10;8.90;8.05;121.00;121.50;121.50
84107;NextPM;74203;50.730;1.626;2023-11-21T02:01:04;11.75;8.70;7.80;114.00;114.50;115.00
84107;NextPM;74203;50.730;1.626;2023-11-21T02:03:12;12.40;9.20;8.25;121.00;121.00;121.50
84107;NextPM;74203;50.730;1.626;2023-11-21T02:05:19;12.15;9.00;8.10;117.50;117.50;118.00
84107;NextPM;74203;50.730;1.626;2023-11-21T02:07:27;12.60;9.30;8.35;121.00;121.50;121.50
84107;NextPM;74203;50.730;1.626;2023-11-21T02:09:34;12.25;9.10;8.15;121.50;122.50;122.50
84107;NextPM;74203;50.730;1.626;2023-11-21T02:11:42;11.70;8.60;7.80;116.00;117.00;117.00
84107;NextPM;74203;50.730;1.626;2023-11-21T02:13:49;11.30;8.35;7.50;109.00;109.00;109.50
84107;NextPM;74203;50.730;1.626;2023-11-21T02:15:56;11.60;8.55;7.75;109.50;109.50;110.00
84107;NextPM;74203;50.730;1.626;2023-11-21T02:18:04;10.60;7.80;7.00;101.00;101.50;101.50
84107;NextPM;74203;50.730;1.626;2023-11-21T02:20:12;9.25;6.85;6.15;90.50;91.00;91.00
84107;NextPM;74203;50.730;1.626;2023-11-21T02:22:20;7.60;5.60;5.05;71.50;72.00;72.00
84107;NextPM;74203;50.730;1.626;2023-11-21T02:24:31;6.50;4.75;4.35;62.00;62.00;62.00
84107;NextPM;74203;50.730;1.626;2023-11-21T02:26:39;5.70;4.20;3.80;54.50;54.50;54.50
84107;NextPM;74203;50.730;1.626;2023-11-21T02:28:46;4.80;3.55;3.20;48.50;48.50;48.50
84107;NextPM;74203;50.730;1.626;2023-11-21T02:30:54;4.45;3.30;2.95;44.00;44.00;44.00
84107;NextPM;74203;50.730;1.626;2023-11-21T02:33:01;5.50;4.05;3.65;51.50;52.50;52.50
84107;NextPM;74203;50.730;1.626;2023-11-21T02:35:09;5.55;4.10;3.70;54.00;54.50;54.50
84107;NextPM;74203;50.730;1.626;2023-11-21T02:37:17;5.75;4.25;3.80;57.00;57.00;57.50
84107;NextPM;74203;50.730;1.626;2023-11-21T02:39:24;6.35;4.70;4.20;62.50;62.50;62.50
84107;NextPM;74203;50.730;1.626;2023-11-21T02:41:31;7.10;5.25;4.75;70.50;71.00;71.00
84107;NextPM;74203;50.730;1.626;2023-11-21T02:43:38;7.95;5.90;5.30;77.50;77.50;77.50
84107;NextPM;74203;50.730;1.626;2023-11-21T02:45:46;7.70;5.65;5.10;75.00;75.00;75.00
84107;NextPM;74203;50.730;1.626;2023-11-21T02:47:53;7.80;5.75;5.15;75.00;75.00;75.50
84107;NextPM;74203;50.730;1.626;2023-11-21T02:50:01;8.10;6.00;5.40;79.00;79.00;79.50
84107;NextPM;74203;50.730;1.626;2023-11-21T02:52:09;8.05;5.90;5.35;78.00;78.00;78.00
84107;NextPM;74203;50.730;1.626;2023-11-21T02:54:16;8.80;6.50;5.85;85.00;85.50;85.50
84107;NextPM;74203;50.730;1.626;2023-11-21T02:56:24;8.60;6.35;5.75;82.00;83.00;83.00
84107;NextPM;74203;50.730;1.626;2023-11-21T02:58:32;8.70;6.40;5.75;83.50;84.00;84.00
84107;NextPM;74203;50.730;1.626;2023-11-21T03:00:39;8.90;6.60;5.90;83.00;83.50;83.50
84107;NextPM;74203;50.730;1.626;2023-11-21T03:02:46;8.75;6.45;5.80;85.50;86.00;86.00
84107;NextPM;74203;50.730;1.626;2023-11-21T03:04:54;9.00;6.60;5.95;86.00;86.50;86.50
84107;NextPM;74203;50.730;1.626;2023-11-21T03:07:01;9.15;6.75;6.10;86.00;86.00;86.50
84107;NextPM;74203;50.730;1.626;2023-11-21T03:09:08;7.50;5.55;5.00;72.50;72.50;73.00
84107;NextPM;74203;50.730;1.626;2023-11-21T03:11:16;6.90;5.05;4.55;67.00;67.50;68.00
84107;NextPM;74203;50.730;1.626;2023-11-21T03:13:23;7.05;5.25;4.70;65.50;66.00;66.00
84107;NextPM;74203;50.730;1.626;2023-11-21T03:15:30;7.15;5.30;4.75;69.00;70.00;70.00
84107;NextPM;74203;50.730;1.626;2023-11-21T03:17:37;7.05;5.20;4.65;68.50;69.00;69.00
84107;NextPM;74203;50.730;1.626;2023-11-21T03:19:45;6.45;4.75;4.25;61.00;61.50;61.50
84107;NextPM;74203;50.730;1.626;2023-11-21T03:21:52;6.80;5.00;4.50;66.50;67.00;67.50
84107;NextPM;74203;50.730;1.626;2023-11-21T03:23:59;7.50;5.55;5.00;72.00;73.00;73.00
84107;NextPM;74203;50.730;1.626;2023-11-21T03:26:11;7.20;5.35;4.75;69.50;69.50;69.50
84107;NextPM;74203;50.730;1.626;2023-11-21T03:28:18;6.25;4.60;4.15;59.50;59.50;59.50
84107;NextPM;74203;50.730;1.626;2023-11-21T03:30:26;5.85;4.35;3.90;58.50;59.00;59.00
84107;NextPM;74203;50.730;1.626;2023-11-21T03:32:33;6.35;4.70;4.25;61.50;62.00;62.00
84107;NextPM;74203;50.730;1.626;2023-11-21T03:34:55;6.10;4.50;4.05;59.50;60.00;60.00
84107;NextPM;74203;50.730;1.626;2023-11-21T03:37:03;5.85;4.30;3.85;57.00;57.00;57.00
84107;NextPM;74203;50.730;1.626;2023-11-21T03:39:10;5.80;4.25;3.85;55.00;56.00;56.00
84107;NextPM;74203;50.730;1.626;2023-11-21T03:41:18;5.50;4.05;3.65;52.50;52.50;52.50
84107;NextPM;74203;50.730;1.626;2023-11-21T03:43:26;6.05;4.50;4.00;57.50;58.00;58.00
84107;NextPM;74203;50.730;1.626;2023-11-21T03:45:33;6.30;4.70;4.20;58.50;59.00;59.00
84107;NextPM;74203;50.730;1.626;2023-11-21T03:47:40;5.75;4.25;3.80;54.50;54.50;55.00
84107;NextPM;74203;50.730;1.626;2023-11-21T03:49:49;6.50;4.80;4.30;58.50;59.50;59.50
84107;NextPM;74203;50.730;1.626;2023-11-21T03:51:56;6.60;4.85;4.35;63.00;63.50;63.50
84107;NextPM;74203;50.730;1.626;2023-11-21T03:54:04;6.45;4.75;4.30;61.00;61.50;61.50
84107;NextPM;74203;50.730;1.626;2023-11-21T03:56:11;6.85;5.05;4.55;65.50;65.50;66.00
84107;NextPM;74203;50.730;1.626;2023-11-21T03:58:21;5.45;4.00;3.65;52.00;52.50;53.00
84107;NextPM;74203;50.730;1.626;2023-11-21T04:00:28;5.10;3.80;3.40;49.50;49.50;50.00
84107;NextPM;74203;50.730;1.626;2023-11-21T04:02:35;5.00;3.70;3.30;47.00;47.00;47.00
84107;NextPM;74203;50.730;1.626;2023-11-21T04:04:43;5.35;3.95;3.55;48.50;49.50;49.50
84107;NextPM;74203;50.730;1.626;2023-11-21T04:06:50;5.10;3.75;3.40;46.50;46.50;46.50
84107;NextPM;74203;50.730;1.626;2023-11-21T04:08:57;4.05;3.00;2.65;38.50;38.50;38.50
84107;NextPM;74203;50.730;1.626;2023-11-21T04:11:05;3.45;2.60;2.30;33.50;33.50;33.50
84107;NextPM;74203;50.730;1.626;2023-11-21T04:13:12;4.15;3.05;2.75;36.00;36.50;36.50
84107;NextPM;74203;50.730;1.626;2023-11-21T04:15:20;4.25;3.15;2.85;38.00;38.00;38.00
84107;NextPM;74203;50.730;1.626;2023-11-21T04:17:28;3.70;2.75;2.45;32.50;33.00;33.50
84107;NextPM;74203;50.730;1.626;2023-11-21T04:19:35;3.90;2.85;2.55;36.50;36.50;36.50
84107;NextPM;74203;50.730;1.626;2023-11-21T04:21:43;2.95;2.15;1.95;29.00;29.50;29.50
84107;NextPM;74203;50.730;1.626;2023-11-21T04:23:50;3.70;2.70;2.45;32.50;32.50;32.50
84107;NextPM;74203;50.730;1.626;2023-11-21T04:25:58;2.70;1.95;1.75;26.00;26.00;26.50
84107;NextPM;74203;50.730;1.626;2023-11-21T04:28:05;3.25;2.40;2.15;30.00;30.00;30.50
84107;NextPM;74203;50.730;1.626;2023-11-21T04:30:14;2.70;2.00;1.80;24.50;24.50;24.50
84107;NextPM;74203;50.730;1.626;2023-11-21T04:32:22;2.65;1.90;1.70;23.50;23.50;23.50
84107;NextPM;74203;50.730;1.626;2023-11-21T04:34:30;2.50;1.85;1.65;23.50;23.50;23.50
84107;NextPM;74203;50.730;1.626;2023-11-21T04:36:37;2.20;1.60;1.45;20.50;20.50;20.50
84107;NextPM;74203;50.730;1.626;2023-11-21T04:38:45;2.05;1.50;1.40;19.00;19.00;19.00
84107;NextPM;74203;50.730;1.626;2023-11-21T04:40:52;1.90;1.40;1.30;17.00;17.00;17.00
84107;NextPM;74203;50.730;1.626;2023-11-21T04:42:59;1.70;1.25;1.10;15.50;16.00;16.00
84107;NextPM;74203;50.730;1.626;2023-11-21T04:45:07;1.80;1.35;1.20;18.00;18.00;18.00
84107;NextPM;74203;50.730;1.626;2023-11-21T04:47:16;2.10;1.55;1.40;19.50;19.50;19.50
84107;NextPM;74203;50.730;1.626;2023-11-21T04:49:23;2.95;2.20;1.95;27.50;27.50;27.50
84107;NextPM;74203;50.730;1.626;2023-11-21T04:51:30;3.85;2.85;2.55;33.50;33.50;33.50
84107;NextPM;74203;50.730;1.626;2023-11-21T04:53:37;4.80;3.55;3.20;42.00;43.00;43.00
84107;NextPM;74203;50.730;1.626;2023-11-21T04:55:45;4.55;3.35;3.05;41.50;41.50;41.50
84107;NextPM;74203;50.730;1.626;2023-11-21T04:57:52;3.45;2.50;2.30;32.00;32.00;32.00
84107;NextPM;74203;50.730;1.626;2023-11-21T05:00:00;3.05;2.25;2.00;28.00;28.00;28.00
84107;NextPM;74203;50.730;1.626;2023-11-21T05:02:08;2.90;2.15;1.95;26.00;26.00;26.00
84107;NextPM;74203;50.730;1.626;2023-11-21T05:04:15;3.05;2.25;2.05;27.00;27.50;27.50
84107;NextPM;74203;50.730;1.626;2023-11-21T05:06:23;3.10;2.30;2.05;27.00;27.00;27.00
84107;NextPM;74203;50.730;1.626;2023-11-21T05:08:30;2.75;2.00;1.85;26.00;26.00;26.00
84107;NextPM;74203;50.730;1.626;2023-11-21T05:10:38;3.05;2.25;2.05;29.50;29.50;30.00
84107;NextPM;74203;50.730;1.626;2023-11-21T05:12:45;3.90;2.90;2.60;33.50;33.50;34.50
84107;NextPM;74203;50.730;1.626;2023-11-21T05:14:52;4.35;3.20;2.90;41.50;41.50;42.50
84107;NextPM;74203;50.730;1.626;2023-11-21T05:17:00;5.30;3.90;3.50;49.00;49.50;50.00
84107;NextPM;74203;50.730;1.626;2023-11-21T05:19:08;4.85;3.60;3.25;46.00;46.50;46.50
84107;NextPM;74203;50.730;1.626;2023-11-21T05:21:15;4.75;3.50;3.15;41.00;41.00;41.50
84107;NextPM;74203;50.730;1.626;2023-11-21T05:23:22;3.65;2.70;2.45;32.50;33.00;33.00
84107;NextPM;74203;50.730;1.626;2023-11-21T05:25:29;2.85;2.10;1.90;26.00;26.00;26.00
84107;NextPM;74203;50.730;1.626;2023-11-21T05:27:37;2.90;2.15;1.90;27.50;27.50;27.50
84107;NextPM;74203;50.730;1.626;2023-11-21T05:29:44;3.05;2.20;2.00;29.50;29.50;30.00
84107;NextPM;74203;50.730;1.626;2023-11-21T05:31:52;2.65;1.95;1.75;25.00;25.50;25.50
84107;NextPM;74203;50.730;1.626;2023-11-21T05:33:59;3.40;2.50;2.20;31.50;31.50;31.50
84107;NextPM;74203;50.730;1.626;2023-11-21T05:36:09;3.65;2.65;2.45;31.50;32.00;32.00
84107;NextPM;74203;50.730;1.626;2023-11-21T05:38:16;4.20;3.10;2.80;40.00;40.00;40.00
84107;NextPM;74203;50.730;1.626;2023-11-21T05:40:24;4.05;2.95;2.65;37.00;37.00;37.00
84107;NextPM;74203;50.730;1.626;2023-11-21T05:42:31;3.85;2.80;2.55;35.00;35.00;35.00
84107;NextPM;74203;50.730;1.626;2023-11-21T05:44:40;4.75;3.45;3.15;42.00;42.50;43.00
84107;NextPM;74203;50.730;1.626;2023-11-21T05:46:48;4.50;3.30;2.95;40.50;41.00;41.00
84107;NextPM;74203;50.730;1.626;2023-11-21T05:48:55;4.00;2.95;2.65;38.50;38.50;39.00
84107;NextPM;74203;50.730;1.626;2023-11-21T05:51:03;4.15;3.05;2.75;39.50;39.50;39.50
84107;NextPM;74203;50.730;1.626;2023-11-21T05:53:10;3.85;2.85;2.55;36.00;36.50;36.50
84107;NextPM;74203;50.730;1.626;2023-11-21T05:55:18;2.80;2.05;1.85;27.00;27.00;27.00
84107;NextPM;74203;50.730;1.626;2023-11-21T05:57:27;2.95;2.20;1.95;26.50;26.50;26.50
84107;NextPM;74203;50.730;1.626;2023-11-21T05:59:34;2.60;1.95;1.75;23.50;24.50;24.50
84107;NextPM;74203;50.730;1.626;2023-11-21T06:01:42;2.65;1.95;1.75;25.00;25.00;25.00
84107;NextPM;74203;50.730;1.626;2023-11-21T06:03:49;2.25;1.65;1.45;21.50;22.00;22.00
84107;NextPM;74203;50.730;1.626;2023-11-21T06:05:56;3.15;2.30;2.05;27.00;27.00;27.00
84107;NextPM;74203;50.730;1.626;2023-11-21T06:08:04;3.10;2.25;2.00;28.00;28.00;28.50
84107;NextPM;74203;50.730;1.626;2023-11-21T06:10:12;3.95;2.85;2.60;38.00;38.50;38.50
84107;NextPM;74203;50.730;1.626;2023-11-21T06:12:19;3.90;2.85;2.55;36.50;36.50;36.50
84107;NextPM;74203;50.730;1.626;2023-11-21T06:14:27;3.20;2.40;2.10;29.50;29.50;30.00
84107;NextPM;74203;50.730;1.626;2023-11-21T06:16:34;3.55;2.60;2.35;33.00;33.00;33.00
84107;NextPM;74203;50.730;1.626;2023-11-21T06:18:41;3.25;2.35;2.10;30.50;30.50;30.50
84107;NextPM;74203;50.730;1.626;2023-11-21T06:20:49;3.65;2.65;2.40;33.50;33.50;33.50
84107;NextPM;74203;50.730;1.626;2023-11-21T06:22:56;3.35;2.45;2.20;29.50;30.00;30.00
84107;NextPM;74203;50.730;1.626;2023-11-21T06:25:04;3.55;2.60;2.35;30.50;31.00;31.00
84107;NextPM;74203;50.730;1.626;2023-11-21T06:27:13;3.45;2.55;2.30;31.00;31.50;31.50
84107;NextPM;74203;50.730;1.626;2023-11-21T06:29:20;3.70;2.70;2.40;33.00;33.50;33.50
84107;NextPM;74203;50.730;1.626;2023-11-21T06:31:28;3.65;2.65;2.40;35.50;35.50;36.00
84107;NextPM;74203;50.730;1.626;2023-11-21T06:33:35;3.75;2.75;2.45;36.00;36.00;36.50
84107;NextPM;74203;50.730;1.626;2023-11-21T06:35:43;3.60;2.65;2.40;31.00;31.00;31.50
84107;NextPM;74203;50.730;1.626;2023-11-21T06:37:50;3.10;2.30;2.05;30.00;30.00;30.00
84107;NextPM;74203;50.730;1.626;2023-11-21T06:39:57;3.00;2.25;1.95;30.00;30.50;30.50
84107;NextPM;74203;50.730;1.626;2023-11-21T06:42:06;3.45;2.50;2.30;31.50;31.50;31.50
84107;NextPM;74203;50.730;1.626;2023-11-21T06:44:14;3.95;2.90;2.60;35.00;35.00;36.00
84107;NextPM;74203;50.730;1.626;2023-11-21T06:46:21;3.85;2.85;2.55;35.00;35.00;35.00
84107;NextPM;74203;50.730;1.626;2023-11-21T06:48:29;3.60;2.65;2.40;33.00;33.00;33.00
84107;NextPM;74203;50.730;1.626;2023-11-21T06:50:36;3.85;2.85;2.55;37.00;38.00;38.00
84107;NextPM;74203;50.730;1.626;2023-11-21T06:52:43;3.70;2.70;2.45;33.00;33.00;33.00
84107;NextPM;74203;50.730;1.626;2023-11-21T06:54:50;3.50;2.60;2.30;31.50;32.00;32.00
84107;NextPM;74203;50.730;1.626;2023-11-21T06:56:58;4.25;3.10;2.80;40.00;40.00;40.50
84107;NextPM;74203;50.730;1.626;2023-11-21T06:59:05;4.35;3.25;2.90;41.50;42.00;42.00
84107;NextPM;74203;50.730;1.626;2023-11-21T07:01:13;4.90;3.60;3.20;43.50;44.50;44.50
84107;NextPM;74203;50.730;1.626;2023-11-21T07:03:21;4.25;3.15;2.80;37.50;38.00;38.00
84107;NextPM;74203;50.730;1.626;2023-11-21T07:05:28;5.10;3.75;3.35;47.00;47.00;47.50
84107;NextPM;74203;50.730;1.626;2023-11-21T07:07:35;4.55;3.35;3.00;44.00;44.50;44.50
84107;NextPM;74203;50.730;1.626;2023-11-21T07:09:42;4.60;3.35;3.05;40.00;40.00;40.50
84107;NextPM;74203;50.730;1.626;2023-11-21T07:11:50;4.50;3.35;2.95;40.00;40.50;40.50
84107;NextPM;74203;50.730;1.626;2023-11-21T07:13:57;4.30;3.15;2.85;38.00;38.50;39.00
84107;NextPM;74203;50.730;1.626;2023-11-21T07:16:05;4.25;3.10;2.80;38.50;38.50;38.50
84107;NextPM;74203;50.730;1.626;2023-11-21T07:18:13;4.45;3.30;2.95;39.50;39.50;40.00
84107;NextPM;74203;50.730;1.626;2023-11-21T07:20:21;4.25;3.15;2.85;39.00;39.50;39.50
84107;NextPM;74203;50.730;1.626;2023-11-21T07:22:28;4.60;3.40;3.05;42.00;42.50;43.00
84107;NextPM;74203;50.730;1.626;2023-11-21T07:24:36;4.85;3.60;3.20;41.50;41.50;42.00
84107;NextPM;74203;50.730;1.626;2023-11-21T07:26:44;4.95;3.65;3.25;46.00;47.00;47.00
84107;NextPM;74203;50.730;1.626;2023-11-21T07:28:51;5.05;3.70;3.30;44.50;45.50;45.50
84107;NextPM;74203;50.730;1.626;2023-11-21T07:30:58;5.00;3.70;3.35;47.50;48.00;48.00
84107;NextPM;74203;50.730;1.626;2023-11-21T07:33:06;4.70;3.40;3.10;42.00;42.00;42.50
84107;NextPM;74203;50.730;1.626;2023-11-21T07:35:13;4.35;3.20;2.90;41.00;41.50;41.50
84107;NextPM;74203;50.730;1.626;2023-11-21T07:37:20;3.85;2.80;2.55;35.50;35.50;36.50
84107;NextPM;74203;50.730;1.626;2023-11-21T07:39:28;3.70;2.75;2.45;34.00;34.50;34.50
84107;NextPM;74203;50.730;1.626;2023-11-21T07:41:35;3.90;2.80;2.55;33.00;33.00;33.50
84107;NextPM;74203;50.730;1.626;2023-11-21T07:43:43;3.35;2.50;2.20;31.00;31.00;31.00
84107;NextPM;74203;50.730;1.626;2023-11-21T07:45:50;3.35;2.50;2.20;29.50;30.00;30.00
84107;NextPM;74203;50.730;1.626;2023-11-21T07:47:58;4.30;3.15;2.85;37.00;37.50;37.50
84107;NextPM;74203;50.730;1.626;2023-11-21T07:50:06;3.80;2.80;2.50;35.50;35.50;35.50
84107;NextPM;74203;50.730;1.626;2023-11-21T07:52:15;3.60;2.65;2.40;33.00;33.50;33.50
84107;NextPM;74203;50.730;1.626;2023-11-21T07:54:22;3.25;2.40;2.15;29.50;30.00;30.00
84107;NextPM;74203;50.730;1.626;2023-11-21T07:56:29;3.70;2.75;2.45;33.50;34.00;34.00
84107;NextPM;74203;50.730;1.626;2023-11-21T07:58:36;3.45;2.55;2.25;30.50;31.50;31.50
84107;NextPM;74203;50.730;1.626;2023-11-21T08:00:44;3.45;2.55;2.25;31.50;32.50;32.50
84107;NextPM;74203;50.730;1.626;2023-11-21T08:02:51;3.65;2.70;2.45;31.50;32.50;32.50
84107;NextPM;74203;50.730;1.626;2023-11-21T08:04:59;3.25;2.35;2.15;32.00;32.00;32.00
84107;NextPM;74203;50.730;1.626;2023-11-21T08:07:08;3.90;2.85;2.55;33.50;33.50;34.00
84107;NextPM;74203;50.730;1.626;2023-11-21T08:09:15;4.45;3.30;2.95;39.50;39.50;40.00
84107;NextPM;74203;50.730;1.626;2023-11-21T08:11:22;4.50;3.30;2.95;40.50;40.50;40.50
84107;NextPM;74203;50.730;1.626;2023-11-21T08:13:30;4.35;3.20;2.90;40.00;40.50;40.50
84107;NextPM;74203;50.730;1.626;2023-11-21T08:15:38;3.45;2.55;2.30;31.50;31.50;31.50
84107;NextPM;74203;50.730;1.626;2023-11-21T08:17:45;3.90;2.85;2.60;36.00;36.00;36.50
84107;NextPM;74203;50.730;1.626;2023-11-21T08:19:53;4.50;3.30;3.00;43.00;43.50;43.50
84107;NextPM;74203;50.730;1.626;2023-11-21T08:22:00;3.80;2.80;2.50;34.50;35.00;35.00
84107;NextPM;74203;50.730;1.626;2023-11-21T08:24:08;5.90;4.35;3.95;54.50;55.00;55.00
84107;NextPM;74203;50.730;1.626;2023-11-21T08:26:17;6.60;4.90;4.35;62.00;62.00;62.00
84107;NextPM;74203;50.730;1.626;2023-11-21T08:28:25;11.00;8.10;7.35;106.00;106.50;107.00
84107;NextPM;74203;50.730;1.626;2023-11-21T08:30:33;6.85;5.05;4.55;62.00;62.50;63.00
84107;NextPM;74203;50.730;1.626;2023-11-21T08:32:41;5.75;4.30;3.80;53.50;54.00;54.00
84107;NextPM;74203;50.730;1.626;2023-11-21T08:34:48;7.30;5.35;4.85;70.00;70.00;71.00
84107;NextPM;74203;50.730;1.626;2023-11-21T08:36:56;7.75;5.70;5.15;74.00;74.50;74.50
84107;NextPM;74203;50.730;1.626;2023-11-21T08:39:04;6.40;4.70;4.25;59.50;60.00;60.00
84107;NextPM;74203;50.730;1.626;2023-11-21T08:41:11;6.30;4.65;4.20;58.50;59.00;59.00
84107;NextPM;74203;50.730;1.626;2023-11-21T08:43:19;4.05;3.00;2.70;37.50;38.00;38.00
84107;NextPM;74203;50.730;1.626;2023-11-21T08:45:26;4.45;3.30;3.00;42.00;42.00;42.50
84107;NextPM;74203;50.730;1.626;2023-11-21T08:47:33;3.70;2.75;2.45;35.00;35.00;35.50
84107;NextPM;74203;50.730;1.626;2023-11-21T08:49:41;3.85;2.85;2.55;36.00;36.00;36.00
84107;NextPM;74203;50.730;1.626;2023-11-21T08:51:48;3.80;2.75;2.50;34.50;34.50;35.00
84107;NextPM;74203;50.730;1.626;2023-11-21T08:53:55;3.45;2.60;2.30;32.50;33.00;33.50
84107;NextPM;74203;50.730;1.626;2023-11-21T08:56:03;3.40;2.50;2.25;32.00;32.50;32.50
84107;NextPM;74203;50.730;1.626;2023-11-21T08:58:11;3.95;2.90;2.60;36.50;37.00;37.00
84107;NextPM;74203;50.730;1.626;2023-11-21T09:00:19;4.30;3.15;2.80;41.00;41.00;41.50
84107;NextPM;74203;50.730;1.626;2023-11-21T09:02:27;3.45;2.55;2.30;31.00;31.50;31.50
84107;NextPM;74203;50.730;1.626;2023-11-21T09:04:35;3.65;2.70;2.45;32.00;32.00;32.50
84107;NextPM;74203;50.730;1.626;2023-11-21T09:06:43;3.75;2.80;2.50;37.00;37.00;37.00
84107;NextPM;74203;50.730;1.626;2023-11-21T09:08:51;4.10;3.00;2.70;38.50;38.50;38.50
84107;NextPM;74203;50.730;1.626;2023-11-21T09:10:58;4.05;3.00;2.70;36.50;37.00;37.00
84107;NextPM;74203;50.730;1.626;2023-11-21T09:13:06;4.10;3.00;2.70;39.00;39.00;39.00
84107;NextPM;74203;50.730;1.626;2023-11-21T09:15:13;3.65;2.70;2.40;33.50;33.50;33.50
84107;NextPM;74203;50.730;1.626;2023-11-21T09:17:21;3.85;2.85;2.55;33.00;33.50;33.50
84107;NextPM;74203;50.730;1.626;2023-11-21T09:19:29;3.80;2.80;2.50;32.50;33.00;33.00
84107;NextPM;74203;50.730;1.626;2023-11-21T09:21:36;3.85;2.85;2.55;35.50;36.00;36.00
84107;NextPM;74203;50.730;1.626;2023-11-21T09:23:44;3.75;2.75;2.50;36.00;36.50;36.50
84107;NextPM;74203;50.730;1.626;2023-11-21T09:25:52;4.45;3.25;2.95;40.50;40.50;40.50
84107;NextPM;74203;50.730;1.626;2023-11-21T09:28:00;3.75;2.75;2.45;36.00;36.00;36.00
84107;NextPM;74203;50.730;1.626;2023-11-21T09:30:08;3.60;2.65;2.35;32.00;32.00;32.00
84107;NextPM;74203;50.730;1.626;2023-11-21T09:32:17;3.20;2.35;2.10;29.50;29.50;29.50
84107;NextPM;74203;50.730;1.626;2023-11-21T09:34:25;3.70;2.70;2.45;32.50;33.00;33.00
84107;NextPM;74203;50.730;1.626;2023-11-21T09:36:33;3.50;2.55;2.30;32.00;32.00;32.00
84107;NextPM;74203;50.730;1.626;2023-11-21T09:38:42;3.40;2.50;2.20;31.00;31.00;31.00
84107;NextPM;74203;50.730;1.626;2023-11-21T09:40:51;3.20;2.35;2.10;30.50;30.50;30.50
84107;NextPM;74203;50.730;1.626;2023-11-21T09:42:58;3.50;2.55;2.30;33.50;33.50;33.50
84107;NextPM;74203;50.730;1.626;2023-11-21T09:45:11;2.80;2.05;1.85;25.50;25.50;25.50
84107;NextPM;74203;50.730;1.626;2023-11-21T09:47:28;3.70;2.75;2.45;34.50;34.50;34.50
84107;NextPM;74203;50.730;1.626;2023-11-21T09:49:38;3.90;2.85;2.55;34.00;34.50;34.50
84107;NextPM;74203;50.730;1.626;2023-11-21T09:51:47;3.45;2.50;2.30;31.50;32.00;32.00
84107;NextPM;74203;50.730;1.626;2023-11-21T09:53:58;6.85;5.05;4.55;65.00;65.50;65.50